sensor_id;sensor_type;location;lat;lon;timestamp;pressure;altitude;pressure_sealevel;temperature;humidity
68654;BME280;55636;51.108;13.622;2023-04-06T00:00:15;100858.63;;;2.38;49.02
68654;BME280;55636;51.108;13.622;2023-04-06T00:01:18;100852.75;;;2.34;48.99
68654;BME280;55636;51.108;13.622;2023-04-06T00:02:20;100855.66;;;2.33;49.10
68654;BME280;55636;51.108;13.622;2023-04-06T00:03:23;100856.72;;;2.32;49.31
68654;BME280;55636;51.108;13.622;2023-04-06T00:04:25;100850.59;;;2.30;49.24
68654;BME280;55636;51.108;13.622;2023-04-06T00:05:29;100855.41;;;2.27;49.28
68654;BME280;55636;51.108;13.622;2023-04-06T00:06:33;100856.44;;;2.26;49.49
68654;BME280;55636;51.108;13.622;2023-04-06T00:07:36;100857.47;;;2.25;49.40
68654;BME280;55636;51.108;13.622;2023-04-06T00:08:39;100852.22;;;2.24;49.44
68654;BME280;55636;51.108;13.622;2023-04-06T00:09:42;100850.53;;;2.23;49.41
68654;BME280;55636;51.108;13.622;2023-04-06T00:10:45;100857.00;;;2.22;49.67
68654;BME280;55636;51.108;13.622;2023-04-06T00:11:47;100849.84;;;2.21;49.63
68654;BME280;55636;51.108;13.622;2023-04-06T00:12:51;100853.66;;;2.20;49.64
68654;BME280;55636;51.108;13.622;2023-04-06T00:13:53;100851.94;;;2.19;49.64
68654;BME280;55636;51.108;13.622;2023-04-06T00:14:55;100850.25;;;2.18;49.78
68654;BME280;55636;51.108;13.622;2023-04-06T00:15:58;100854.88;;;2.17;49.88
68654;BME280;55636;51.108;13.622;2023-04-06T00:17:01;100850.47;;;2.16;49.85
68654;BME280;55636;51.108;13.622;2023-04-06T00:18:03;100850.66;;;2.15;49.95
68654;BME280;55636;51.108;13.622;2023-04-06T00:19:06;100849.78;;;2.14;50.03
68654;BME280;55636;51.108;13.622;2023-04-06T00:20:09;100854.41;;;2.14;50.01
68654;BME280;55636;51.108;13.622;2023-04-06T00:21:12;100852.72;;;2.13;50.05
68654;BME280;55636;51.108;13.622;2023-04-06T00:22:15;100848.28;;;2.12;50.04
68654;BME280;55636;51.108;13.622;2023-04-06T00:23:17;100848.28;;;2.12;50.12
68654;BME280;55636;51.108;13.622;2023-04-06T00:24:21;100847.47;;;2.11;50.08
68654;BME280;55636;51.108;13.622;2023-04-06T00:25:24;100846.78;;;2.09;50.14
68654;BME280;55636;51.108;13.622;2023-04-06T00:26:26;100842.22;;;2.09;50.15
68654;BME280;55636;51.108;13.622;2023-04-06T00:27:30;100846.78;;;2.09;50.14
68654;BME280;55636;51.108;13.622;2023-04-06T00:28:33;100844.06;;;2.09;50.23
68654;BME280;55636;51.108;13.622;2023-04-06T00:29:35;100849.53;;;2.09;50.25
68654;BME280;55636;51.108;13.622;2023-04-06T00:30:38;100842.41;;;2.08;50.27
68654;BME280;55636;51.108;13.622;2023-04-06T00:31:40;100853.31;;;2.08;50.40
68654;BME280;55636;51.108;13.622;2023-04-06T00:32:42;100853.31;;;2.08;50.38
68654;BME280;55636;51.108;13.622;2023-04-06T00:33:45;100843.25;;;2.08;50.42
68654;BME280;55636;51.108;13.622;2023-04-06T00:34:47;100848.88;;;2.07;50.37
68654;BME280;55636;51.108;13.622;2023-04-06T00:35:50;100850.75;;;2.06;50.42
68654;BME280;55636;51.108;13.622;2023-04-06T00:36:53;100843.44;;;2.07;50.46
68654;BME280;55636;51.108;13.622;2023-04-06T00:37:56;100842.56;;;2.06;50.45
68654;BME280;55636;51.108;13.622;2023-04-06T00:39:00;100845.31;;;2.06;50.41
68654;BME280;55636;51.108;13.622;2023-04-06T00:40:04;100847.19;;;2.06;50.61
68654;BME280;55636;51.108;13.622;2023-04-06T00:41:07;100838.00;;;2.07;50.56
68654;BME280;55636;51.108;13.622;2023-04-06T00:42:11;100839.00;;;2.06;50.66
68654;BME280;55636;51.108;13.622;2023-04-06T00:43:18;100833.56;;;2.06;50.73
68654;BME280;55636;51.108;13.622;2023-04-06T00:44:21;100844.47;;;2.06;50.53
68654;BME280;55636;51.108;13.622;2023-04-06T00:45:23;100840.91;;;2.05;50.62
68654;BME280;55636;51.108;13.622;2023-04-06T00:46:28;100834.59;;;2.05;50.66
68654;BME280;55636;51.108;13.622;2023-04-06T00:47:38;100842.78;;;2.05;50.74
68654;BME280;55636;51.108;13.622;2023-04-06T00:48:40;100837.31;;;2.05;50.96
68654;BME280;55636;51.108;13.622;2023-04-06T00:49:43;100840.03;;;2.05;50.91
68654;BME280;55636;51.108;13.622;2023-04-06T00:50:46;100839.22;;;2.04;50.72
68654;BME280;55636;51.108;13.622;2023-04-06T00:51:48;100846.38;;;2.05;50.71
68654;BME280;55636;51.108;13.622;2023-04-06T00:52:50;100841.06;;;2.04;50.68
68654;BME280;55636;51.108;13.622;2023-04-06T00:53:58;100834.78;;;2.03;50.75
68654;BME280;55636;51.108;13.622;2023-04-06T00:55:02;100843.81;;;2.04;50.75
68654;BME280;55636;51.108;13.622;2023-04-06T00:56:05;100840.25;;;2.03;51.13
68654;BME280;55636;51.108;13.622;2023-04-06T00:57:20;100842.13;;;2.03;51.09
68654;BME280;55636;51.108;13.622;2023-04-06T00:58:28;100834.31;;;2.00;51.02
68654;BME280;55636;51.108;13.622;2023-04-06T00:59:38;100842.50;;;2.00;50.95
68654;BME280;55636;51.108;13.622;2023-04-06T01:00:44;100840.63;;;2.00;51.12
68654;BME280;55636;51.108;13.622;2023-04-06T01:01:51;100846.91;;;2.01;51.04
68654;BME280;55636;51.108;13.622;2023-04-06T01:03:07;100837.91;;;2.00;51.13
68654;BME280;55636;51.108;13.622;2023-04-06T01:04:14;100840.81;;;1.99;51.07
68654;BME280;55636;51.108;13.622;2023-04-06T01:05:17;100846.25;;;1.99;51.21
68654;BME280;55636;51.108;13.622;2023-04-06T01:06:24;100839.97;;;1.98;51.16
68654;BME280;55636;51.108;13.622;2023-04-06T01:07:32;100839.97;;;1.98;51.01
68654;BME280;55636;51.108;13.622;2023-04-06T01:08:41;100836.41;;;1.98;50.92
68654;BME280;55636;51.108;13.622;2023-04-06T01:09:54;100837.25;;;1.98;51.07
68654;BME280;55636;51.108;13.622;2023-04-06T01:11:01;100832.00;;;1.97;51.10
68654;BME280;55636;51.108;13.622;2023-04-06T01:12:06;100839.16;;;1.98;51.10
68654;BME280;55636;51.108;13.622;2023-04-06T01:13:09;100840.16;;;1.97;51.12
68654;BME280;55636;51.108;13.622;2023-04-06T01:14:38;100835.75;;;1.96;51.02
68654;BME280;55636;51.108;13.622;2023-04-06T01:15:42;100838.47;;;1.96;51.03
68654;BME280;55636;51.108;13.622;2023-04-06T01:16:49;100837.66;;;1.95;51.06
68654;BME280;55636;51.108;13.622;2023-04-06T01:17:55;100840.38;;;1.95;51.16
68654;BME280;55636;51.108;13.622;2023-04-06T01:18:58;100827.78;;;1.94;51.24
68654;BME280;55636;51.108;13.622;2023-04-06T01:20:04;100835.09;;;1.93;51.22
68654;BME280;55636;51.108;13.622;2023-04-06T01:21:08;100831.53;;;1.93;51.23
68654;BME280;55636;51.108;13.622;2023-04-06T01:22:16;100836.97;;;1.93;51.23
68654;BME280;55636;51.108;13.622;2023-04-06T01:23:26;100836.16;;;1.92;51.06
68654;BME280;55636;51.108;13.622;2023-04-06T01:24:33;100837.19;;;1.91;51.20
68654;BME280;55636;51.108;13.622;2023-04-06T01:25:43;100831.06;;;1.89;51.22
68654;BME280;55636;51.108;13.622;2023-04-06T01:26:47;100833.78;;;1.89;51.17
68654;BME280;55636;51.108;13.622;2023-04-06T01:27:49;100831.25;;;1.88;51.28
68654;BME280;55636;51.108;13.622;2023-04-06T01:28:58;100827.69;;;1.87;51.30
68654;BME280;55636;51.108;13.622;2023-04-06T01:30:03;100836.91;;;1.86;51.22
68654;BME280;55636;51.108;13.622;2023-04-06T01:31:31;100832.47;;;1.85;51.41
68654;BME280;55636;51.108;13.622;2023-04-06T01:32:34;100834.38;;;1.85;51.32
68654;BME280;55636;51.108;13.622;2023-04-06T01:33:36;100828.94;;;1.85;51.26
68654;BME280;55636;51.108;13.622;2023-04-06T01:34:43;100834.38;;;1.85;51.35
68654;BME280;55636;51.108;13.622;2023-04-06T01:35:45;100829.13;;;1.83;51.34
68654;BME280;55636;51.108;13.622;2023-04-06T01:36:51;100832.88;;;1.82;51.47
68654;BME280;55636;51.108;13.622;2023-04-06T01:38:04;100828.47;;;1.81;51.41
68654;BME280;55636;51.108;13.622;2023-04-06T01:39:10;100827.78;;;1.79;51.54
68654;BME280;55636;51.108;13.622;2023-04-06T01:40:14;100824.03;;;1.80;51.50
68654;BME280;55636;51.108;13.622;2023-04-06T01:41:23;100828.66;;;1.80;51.49
68654;BME280;55636;51.108;13.622;2023-04-06T01:42:27;100824.25;;;1.79;51.46
68654;BME280;55636;51.108;13.622;2023-04-06T01:43:30;100825.06;;;1.79;51.62
68654;BME280;55636;51.108;13.622;2023-04-06T01:44:44;100816.47;;;1.75;51.55
68654;BME280;55636;51.108;13.622;2023-04-06T01:45:48;100823.56;;;1.76;51.41
68654;BME280;55636;51.108;13.622;2023-04-06T01:46:54;100826.50;;;1.75;51.64
68654;BME280;55636;51.108;13.622;2023-04-06T01:47:59;100826.50;;;1.75;51.72
68654;BME280;55636;51.108;13.622;2023-04-06T01:49:02;100818.50;;;1.73;51.75
68654;BME280;55636;51.108;13.622;2023-04-06T01:50:09;100831.09;;;1.74;51.95
68654;BME280;55636;51.108;13.622;2023-04-06T01:51:16;100823.13;;;1.73;51.96
68654;BME280;55636;51.108;13.622;2023-04-06T01:52:24;100825.84;;;1.73;51.80
68654;BME280;55636;51.108;13.622;2023-04-06T01:53:29;100828.75;;;1.71;51.82
68654;BME280;55636;51.108;13.622;2023-04-06T01:54:38;100822.47;;;1.71;51.87
68654;BME280;55636;51.108;13.622;2023-04-06T01:55:49;100830.44;;;1.72;51.74
68654;BME280;55636;51.108;13.622;2023-04-06T01:57:06;100817.69;;;1.73;51.65
68654;BME280;55636;51.108;13.622;2023-04-06T01:58:18;100831.47;;;1.71;51.76
68654;BME280;55636;51.108;13.622;2023-04-06T01:59:21;100826.41;;;1.68;51.79
68654;BME280;55636;51.108;13.622;2023-04-06T02:00:23;100821.78;;;1.69;51.66
68654;BME280;55636;51.108;13.622;2023-04-06T02:01:28;100823.69;;;1.68;51.86
68654;BME280;55636;51.108;13.622;2023-04-06T02:02:31;100824.72;;;1.67;51.87
68654;BME280;55636;51.108;13.622;2023-04-06T02:03:38;100824.72;;;1.67;51.88
68654;BME280;55636;51.108;13.622;2023-04-06T02:04:45;100820.28;;;1.66;51.84
68654;BME280;55636;51.108;13.622;2023-04-06T02:05:48;100827.44;;;1.67;51.87
68654;BME280;55636;51.108;13.622;2023-04-06T02:07:06;100824.91;;;1.66;51.89
68654;BME280;55636;51.108;13.622;2023-04-06T02:08:09;100825.75;;;1.66;51.79
68654;BME280;55636;51.108;13.622;2023-04-06T02:09:13;100820.50;;;1.65;51.91
68654;BME280;55636;51.108;13.622;2023-04-06T02:10:18;100817.97;;;1.63;51.94
68654;BME280;55636;51.108;13.622;2023-04-06T02:11:20;100827.16;;;1.62;52.18
68654;BME280;55636;51.108;13.622;2023-04-06T02:12:26;100820.88;;;1.62;52.25
68654;BME280;55636;51.108;13.622;2023-04-06T02:13:29;100825.50;;;1.61;52.17
68654;BME280;55636;51.108;13.622;2023-04-06T02:14:32;100819.00;;;1.62;52.13
68654;BME280;55636;51.108;13.622;2023-04-06T02:15:35;100817.31;;;1.61;52.17
68654;BME280;55636;51.108;13.622;2023-04-06T02:16:38;100821.09;;;1.60;52.35
68654;BME280;55636;51.108;13.622;2023-04-06T02:17:42;100819.59;;;1.57;52.52
68654;BME280;55636;51.108;13.622;2023-04-06T02:18:44;100816.84;;;1.57;52.41
68654;BME280;55636;51.108;13.622;2023-04-06T02:19:47;100813.28;;;1.57;52.29
68654;BME280;55636;51.108;13.622;2023-04-06T02:20:49;100811.59;;;1.56;52.38
68654;BME280;55636;51.108;13.622;2023-04-06T02:21:52;100814.50;;;1.54;52.17
68654;BME280;55636;51.108;13.622;2023-04-06T02:22:58;100822.66;;;1.54;52.39
68654;BME280;55636;51.108;13.622;2023-04-06T02:24:00;100821.16;;;1.52;52.41
68654;BME280;55636;51.108;13.622;2023-04-06T02:25:04;100819.31;;;1.52;52.31
68654;BME280;55636;51.108;13.622;2023-04-06T02:26:06;100826.81;;;1.50;52.47
68654;BME280;55636;51.108;13.622;2023-04-06T02:27:10;100825.97;;;1.50;52.38
68654;BME280;55636;51.108;13.622;2023-04-06T02:28:13;100815.44;;;1.47;52.52
68654;BME280;55636;51.108;13.622;2023-04-06T02:29:15;100820.88;;;1.47;52.39
68654;BME280;55636;51.108;13.622;2023-04-06T02:30:18;100814.81;;;1.44;52.54
68654;BME280;55636;51.108;13.622;2023-04-06T02:31:20;100818.34;;;1.45;52.67
68654;BME280;55636;51.108;13.622;2023-04-06T02:32:23;100819.38;;;1.44;52.68
68654;BME280;55636;51.108;13.622;2023-04-06T02:33:27;100817.72;;;1.43;52.54
68654;BME280;55636;51.108;13.622;2023-04-06T02:34:29;100824.38;;;1.40;52.69
68654;BME280;55636;51.108;13.622;2023-04-06T02:35:31;100819.78;;;1.41;52.63
68654;BME280;55636;51.108;13.622;2023-04-06T02:36:34;100819.13;;;1.39;52.84
68654;BME280;55636;51.108;13.622;2023-04-06T02:37:38;100818.47;;;1.37;53.05
68654;BME280;55636;51.108;13.622;2023-04-06T02:38:40;100813.03;;;1.37;52.99
68654;BME280;55636;51.108;13.622;2023-04-06T02:39:43;100815.75;;;1.37;52.93
68654;BME280;55636;51.108;13.622;2023-04-06T02:40:46;100808.13;;;1.32;53.02
68654;BME280;55636;51.108;13.622;2023-04-06T02:41:54;100814.63;;;1.31;52.95
68654;BME280;55636;51.108;13.622;2023-04-06T02:42:59;100815.66;;;1.30;52.90
68654;BME280;55636;51.108;13.622;2023-04-06T02:44:07;100814.63;;;1.31;52.77
68654;BME280;55636;51.108;13.622;2023-04-06T02:45:16;100814.78;;;1.30;52.74
68654;BME280;55636;51.108;13.622;2023-04-06T02:46:22;100816.19;;;1.25;52.89
68654;BME280;55636;51.108;13.622;2023-04-06T02:47:25;100814.50;;;1.24;52.82
68654;BME280;55636;51.108;13.622;2023-04-06T02:48:27;100816.41;;;1.24;52.69
68654;BME280;55636;51.108;13.622;2023-04-06T02:49:30;100808.41;;;1.22;52.70
68654;BME280;55636;51.108;13.622;2023-04-06T02:50:33;100817.63;;;1.21;52.88
68654;BME280;55636;51.108;13.622;2023-04-06T02:51:40;100815.91;;;1.20;52.75
68654;BME280;55636;51.108;13.622;2023-04-06T02:52:52;100811.50;;;1.19;52.76
68654;BME280;55636;51.108;13.622;2023-04-06T02:53:55;100815.44;;;1.17;52.92
68654;BME280;55636;51.108;13.622;2023-04-06T02:54:57;100809.16;;;1.16;52.71
68654;BME280;55636;51.108;13.622;2023-04-06T02:56:06;100819.22;;;1.16;52.85
68654;BME280;55636;51.108;13.622;2023-04-06T02:57:23;100815.81;;;1.14;52.96
68654;BME280;55636;51.108;13.622;2023-04-06T02:58:25;100814.31;;;1.11;52.83
68654;BME280;55636;51.108;13.622;2023-04-06T02:59:30;100820.78;;;1.10;52.88
68654;BME280;55636;51.108;13.622;2023-04-06T03:00:43;100817.25;;;1.09;52.87
68654;BME280;55636;51.108;13.622;2023-04-06T03:01:45;100820.16;;;1.08;53.06
68654;BME280;55636;51.108;13.622;2023-04-06T03:02:48;100817.63;;;1.06;52.99
68654;BME280;55636;51.108;13.622;2023-04-06T03:03:53;100820.50;;;1.05;52.80
68654;BME280;55636;51.108;13.622;2023-04-06T03:04:59;100815.44;;;1.02;52.98
68654;BME280;55636;51.108;13.622;2023-04-06T03:06:08;100816.28;;;1.02;53.07
68654;BME280;55636;51.108;13.622;2023-04-06T03:07:11;100821.91;;;1.01;52.76
68654;BME280;55636;51.108;13.622;2023-04-06T03:08:15;100818.34;;;1.00;52.90
68654;BME280;55636;51.108;13.622;2023-04-06T03:09:19;100813.09;;;0.99;52.93
68654;BME280;55636;51.108;13.622;2023-04-06T03:10:21;100808.69;;;0.98;53.00
68654;BME280;55636;51.108;13.622;2023-04-06T03:11:24;100814.31;;;0.96;53.01
68654;BME280;55636;51.108;13.622;2023-04-06T03:12:28;100818.06;;;0.95;52.85
68654;BME280;55636;51.108;13.622;2023-04-06T03:13:50;100816.56;;;0.92;53.05
68654;BME280;55636;51.108;13.622;2023-04-06T03:14:53;100816.56;;;0.92;52.99
68654;BME280;55636;51.108;13.622;2023-04-06T03:15:56;100817.59;;;0.91;52.93
68654;BME280;55636;51.108;13.622;2023-04-06T03:17:01;100817.59;;;0.91;53.09
68654;BME280;55636;51.108;13.622;2023-04-06T03:18:05;100816.94;;;0.89;53.05
68654;BME280;55636;51.108;13.622;2023-04-06T03:19:15;100810.84;;;0.87;52.99
68654;BME280;55636;51.108;13.622;2023-04-06T03:20:18;100818.16;;;0.87;53.08
68654;BME280;55636;51.108;13.622;2023-04-06T03:21:20;100810.00;;;0.87;53.00
68654;BME280;55636;51.108;13.622;2023-04-06T03:22:26;100809.31;;;0.85;53.11
68654;BME280;55636;51.108;13.622;2023-04-06T03:23:29;100815.59;;;0.85;53.03
68654;BME280;55636;51.108;13.622;2023-04-06T03:24:34;100818.69;;;0.82;53.07
68654;BME280;55636;51.108;13.622;2023-04-06T03:25:49;100817.88;;;0.82;53.18
68654;BME280;55636;51.108;13.622;2023-04-06T03:26:54;100810.91;;;0.79;53.22
68654;BME280;55636;51.108;13.622;2023-04-06T03:27:58;100809.22;;;0.78;53.14
68654;BME280;55636;51.108;13.622;2023-04-06T03:29:01;100810.25;;;0.77;53.23
68654;BME280;55636;51.108;13.622;2023-04-06T03:30:06;100819.25;;;0.77;53.20
68654;BME280;55636;51.108;13.622;2023-04-06T03:31:09;100817.72;;;0.75;53.31
68654;BME280;55636;51.108;13.622;2023-04-06T03:32:44;100818.94;;;0.72;53.45
68654;BME280;55636;51.108;13.622;2023-04-06T03:33:47;100821.03;;;0.70;53.46
68654;BME280;55636;51.108;13.622;2023-04-06T03:34:56;100822.91;;;0.70;53.52
68654;BME280;55636;51.108;13.622;2023-04-06T03:35:59;100822.25;;;0.68;53.58
68654;BME280;55636;51.108;13.622;2023-04-06T03:37:01;100816.13;;;0.66;53.49
68654;BME280;55636;51.108;13.622;2023-04-06T03:38:14;100817.19;;;0.65;53.57
68654;BME280;55636;51.108;13.622;2023-04-06T03:39:16;100822.78;;;0.63;53.67
68654;BME280;55636;51.108;13.622;2023-04-06T03:40:19;100826.53;;;0.62;53.52
68654;BME280;55636;51.108;13.622;2023-04-06T03:41:21;100823.16;;;0.60;53.85
68654;BME280;55636;51.108;13.622;2023-04-06T03:42:50;100831.31;;;0.60;53.75
68654;BME280;55636;51.108;13.622;2023-04-06T03:43:52;100839.66;;;0.58;53.77
68654;BME280;55636;51.108;13.622;2023-04-06T03:44:55;100836.25;;;0.56;53.96
68654;BME280;55636;51.108;13.622;2023-04-06T03:45:58;100839.16;;;0.55;53.90
68654;BME280;55636;51.108;13.622;2023-04-06T03:47:01;100836.63;;;0.53;53.91
68654;BME280;55636;51.108;13.622;2023-04-06T03:48:05;100843.94;;;0.53;53.85
68654;BME280;55636;51.108;13.622;2023-04-06T03:49:10;100836.97;;;0.50;53.97
68654;BME280;55636;51.108;13.622;2023-04-06T03:50:14;100844.50;;;0.48;54.08
68654;BME280;55636;51.108;13.622;2023-04-06T03:51:18;100831.09;;;0.47;54.06
68654;BME280;55636;51.108;13.622;2023-04-06T03:52:22;100840.44;;;0.44;54.00
68654;BME280;55636;51.108;13.622;2023-04-06T03:53:28;100840.44;;;0.44;53.99
68654;BME280;55636;51.108;13.622;2023-04-06T03:54:31;100838.75;;;0.43;54.27
68654;BME280;55636;51.108;13.622;2023-04-06T03:55:33;100846.22;;;0.41;54.33
68654;BME280;55636;51.108;13.622;2023-04-06T03:56:35;100841.84;;;0.40;54.22
68654;BME280;55636;51.108;13.622;2023-04-06T03:57:38;100840.16;;;0.39;54.36
68654;BME280;55636;51.108;13.622;2023-04-06T03:58:42;100843.06;;;0.37;54.35
68654;BME280;55636;51.108;13.622;2023-04-06T03:59:47;100846.78;;;0.36;54.54
68654;BME280;55636;51.108;13.622;2023-04-06T04:00:50;100848.00;;;0.34;54.44
68654;BME280;55636;51.108;13.622;2023-04-06T04:01:53;100842.56;;;0.34;54.39
68654;BME280;55636;51.108;13.622;2023-04-06T04:02:55;100840.88;;;0.33;54.55
68654;BME280;55636;51.108;13.622;2023-04-06T04:03:58;100849.41;;;0.30;54.65
68654;BME280;55636;51.108;13.622;2023-04-06T04:05:02;100851.44;;;0.27;54.66
68654;BME280;55636;51.108;13.622;2023-04-06T04:06:05;100849.72;;;0.26;54.55
68654;BME280;55636;51.108;13.622;2023-04-06T04:07:08;100851.13;;;0.22;54.80
68654;BME280;55636;51.108;13.622;2023-04-06T04:08:11;100851.13;;;0.22;54.65
68654;BME280;55636;51.108;13.622;2023-04-06T04:09:15;100845.88;;;0.21;54.86
68654;BME280;55636;51.108;13.622;2023-04-06T04:10:18;100847.91;;;0.19;54.84
68654;BME280;55636;51.108;13.622;2023-04-06T04:11:21;100855.91;;;0.20;54.92
68654;BME280;55636;51.108;13.622;2023-04-06T04:12:29;100847.09;;;0.18;54.61
68654;BME280;55636;51.108;13.622;2023-04-06T04:13:33;100848.97;;;0.18;54.70
68654;BME280;55636;51.108;13.622;2023-04-06T04:14:37;100851.84;;;0.16;54.57
68654;BME280;55636;51.108;13.622;2023-04-06T04:15:40;100853.53;;;0.17;54.55
68654;BME280;55636;51.108;13.622;2023-04-06T04:16:43;100854.56;;;0.16;54.80
68654;BME280;55636;51.108;13.622;2023-04-06T04:17:46;100849.31;;;0.15;54.77
68654;BME280;55636;51.108;13.622;2023-04-06T04:18:51;100843.88;;;0.15;54.92
68654;BME280;55636;51.108;13.622;2023-04-06T04:19:53;100851.38;;;0.13;54.93
68654;BME280;55636;51.108;13.622;2023-04-06T04:20:56;100842.53;;;0.10;55.02
68654;BME280;55636;51.108;13.622;2023-04-06T04:21:58;100850.88;;;0.09;54.96
68654;BME280;55636;51.108;13.622;2023-04-06T04:23:07;100852.72;;;0.08;54.91
68654;BME280;55636;51.108;13.622;2023-04-06T04:24:10;100848.50;;;0.06;55.20
68654;BME280;55636;51.108;13.622;2023-04-06T04:25:13;100854.13;;;0.04;55.10
68654;BME280;55636;51.108;13.622;2023-04-06T04:26:21;100842.41;;;0.04;54.97
68654;BME280;55636;51.108;13.622;2023-04-06T04:27:23;100845.50;;;0.01;55.15
68654;BME280;55636;51.108;13.622;2023-04-06T04:28:26;100845.50;;;0.01;55.15
68654;BME280;55636;51.108;13.622;2023-04-06T04:29:30;100847.16;;;0.02;55.07
68654;BME280;55636;51.108;13.622;2023-04-06T04:30:38;100852.16;;;-0.02;55.02
68654;BME280;55636;51.108;13.622;2023-04-06T04:31:44;100852.16;;;-0.02;55.10
68654;BME280;55636;51.108;13.622;2023-04-06T04:32:51;100851.28;;;-0.02;55.02
68654;BME280;55636;51.108;13.622;2023-04-06T04:33:57;100849.56;;;-0.03;55.17
68654;BME280;55636;51.108;13.622;2023-04-06T04:35:04;100854.19;;;-0.04;54.99
68654;BME280;55636;51.108;13.622;2023-04-06T04:36:11;100848.75;;;-0.04;55.09
68654;BME280;55636;51.108;13.622;2023-04-06T04:37:17;100848.06;;;-0.06;55.11
68654;BME280;55636;51.108;13.622;2023-04-06T04:38:25;100846.41;;;-0.07;55.21
68654;BME280;55636;51.108;13.622;2023-04-06T04:39:30;100855.38;;;-0.07;55.10
68654;BME280;55636;51.108;13.622;2023-04-06T04:40:38;100852.84;;;-0.08;55.45
68654;BME280;55636;51.108;13.622;2023-04-06T04:41:44;100857.41;;;-0.09;55.41
68654;BME280;55636;51.108;13.622;2023-04-06T04:42:47;100852.16;;;-0.10;55.36
68654;BME280;55636;51.108;13.622;2023-04-06T04:44:01;100858.78;;;-0.13;55.49
68654;BME280;55636;51.108;13.622;2023-04-06T04:45:04;100859.81;;;-0.14;55.33
68654;BME280;55636;51.108;13.622;2023-04-06T04:46:11;100857.09;;;-0.14;55.36
68654;BME280;55636;51.108;13.622;2023-04-06T04:47:17;100851.66;;;-0.14;55.40
68654;BME280;55636;51.108;13.622;2023-04-06T04:48:21;100858.16;;;-0.15;55.44
68654;BME280;55636;51.108;13.622;2023-04-06T04:49:42;100854.75;;;-0.17;55.30
68654;BME280;55636;51.108;13.622;2023-04-06T04:50:47;100858.31;;;-0.16;55.34
68654;BME280;55636;51.108;13.622;2023-04-06T04:51:51;100859.50;;;-0.19;55.52
68654;BME280;55636;51.108;13.622;2023-04-06T04:53:08;100857.66;;;-0.18;55.55
68654;BME280;55636;51.108;13.622;2023-04-06T04:54:11;100855.75;;;-0.18;55.44
68654;BME280;55636;51.108;13.622;2023-04-06T04:55:16;100859.50;;;-0.19;55.61
68654;BME280;55636;51.108;13.622;2023-04-06T04:56:22;100856.78;;;-0.19;55.45
68654;BME280;55636;51.108;13.622;2023-04-06T04:57:29;100854.06;;;-0.19;55.37
68654;BME280;55636;51.108;13.622;2023-04-06T04:58:32;100857.84;;;-0.20;55.63
68654;BME280;55636;51.108;13.622;2023-04-06T04:59:35;100856.78;;;-0.19;55.49
68654;BME280;55636;51.108;13.622;2023-04-06T05:00:46;100854.06;;;-0.19;55.52
68654;BME280;55636;51.108;13.622;2023-04-06T05:01:49;100850.69;;;-0.21;55.57
68654;BME280;55636;51.108;13.622;2023-04-06T05:03:02;100845.28;;;-0.21;55.83
68654;BME280;55636;51.108;13.622;2023-04-06T05:04:10;100857.97;;;-0.22;55.80
68654;BME280;55636;51.108;13.622;2023-04-06T05:05:12;100864.28;;;-0.21;55.84
68654;BME280;55636;51.108;13.622;2023-04-06T05:06:16;100864.09;;;-0.19;55.63
68654;BME280;55636;51.108;13.622;2023-04-06T05:07:19;100855.94;;;-0.19;55.77
68654;BME280;55636;51.108;13.622;2023-04-06T05:08:24;100866.81;;;-0.19;55.79
68654;BME280;55636;51.108;13.622;2023-04-06T05:09:26;100858.66;;;-0.19;55.95
68654;BME280;55636;51.108;13.622;2023-04-06T05:10:28;100861.19;;;-0.18;56.00
68654;BME280;55636;51.108;13.622;2023-04-06T05:11:35;100860.88;;;-0.15;55.97
68654;BME280;55636;51.108;13.622;2023-04-06T05:12:37;100857.09;;;-0.14;56.09
68654;BME280;55636;51.108;13.622;2023-04-06T05:13:42;100861.50;;;-0.13;56.30
68654;BME280;55636;51.108;13.622;2023-04-06T05:14:55;100855.06;;;-0.12;56.28
68654;BME280;55636;51.108;13.622;2023-04-06T05:15:58;100857.41;;;-0.09;56.25
68654;BME280;55636;51.108;13.622;2023-04-06T05:17:04;100858.09;;;-0.07;56.25
68654;BME280;55636;51.108;13.622;2023-04-06T05:18:08;100854.00;;;-0.02;56.33
68654;BME280;55636;51.108;13.622;2023-04-06T05:19:10;100863.13;;;0.05;56.31
68654;BME280;55636;51.108;13.622;2023-04-06T05:20:18;100859.03;;;0.09;56.21
68654;BME280;55636;51.108;13.622;2023-04-06T05:21:24;100872.25;;;0.12;56.52
68654;BME280;55636;51.108;13.622;2023-04-06T05:22:32;100866.09;;;0.18;56.23
68654;BME280;55636;51.108;13.622;2023-04-06T05:23:44;100867.25;;;0.24;56.44
68654;BME280;55636;51.108;13.622;2023-04-06T05:24:47;100863.13;;;0.28;56.37
68654;BME280;55636;51.108;13.622;2023-04-06T05:25:49;100859.91;;;0.33;56.15
68654;BME280;55636;51.108;13.622;2023-04-06T05:26:55;100869.88;;;0.40;56.14
68654;BME280;55636;51.108;13.622;2023-04-06T05:28:00;100862.84;;;0.46;56.05
68654;BME280;55636;51.108;13.622;2023-04-06T05:29:10;100872.81;;;0.54;56.04
68654;BME280;55636;51.108;13.622;2023-04-06T05:30:14;100867.50;;;0.60;56.08
68654;BME280;55636;51.108;13.622;2023-04-06T05:31:20;100866.13;;;0.65;55.89
68654;BME280;55636;51.108;13.622;2023-04-06T05:32:25;100865.03;;;0.74;55.98
68654;BME280;55636;51.108;13.622;2023-04-06T05:33:28;100874.13;;;0.81;55.69
68654;BME280;55636;51.108;13.622;2023-04-06T05:34:51;100874.72;;;0.91;55.64
68654;BME280;55636;51.108;13.622;2023-04-06T05:35:53;100879.25;;;0.99;55.50
68654;BME280;55636;51.108;13.622;2023-04-06T05:36:58;100876.44;;;1.07;55.35
68654;BME280;55636;51.108;13.622;2023-04-06T05:38:00;100871.94;;;1.15;55.34
68654;BME280;55636;51.108;13.622;2023-04-06T05:39:03;100873.75;;;1.22;55.07
68654;BME280;55636;51.108;13.622;2023-04-06T05:40:13;100876.38;;;1.31;54.91